sensor_id;sensor_type;location;lat;lon;timestamp;temperature;humidity
23618;DHT22;18207;32.078;34.818;2023-04-03T00:00:18;23.10;40.20
23618;DHT22;18207;32.078;34.818;2023-04-03T00:02:49;23.10;40.30
23618;DHT22;18207;32.078;34.818;2023-04-03T00:05:20;23.10;40.20
23618;DHT22;18207;32.078;34.818;2023-04-03T00:07:50;23.10;40.30
23618;DHT22;18207;32.078;34.818;2023-04-03T00:10:21;23.10;40.30
23618;DHT22;18207;32.078;34.818;2023-04-03T00:12:54;23.10;40.90
23618;DHT22;18207;32.078;34.818;2023-04-03T00:15:24;23.00;40.30
23618;DHT22;18207;32.078;34.818;2023-04-03T00:17:54;23.00;40.30
23618;DHT22;18207;32.078;34.818;2023-04-03T00:20:25;23.00;40.30
23618;DHT22;18207;32.078;34.818;2023-04-03T00:22:56;23.00;40.30
23618;DHT22;18207;32.078;34.818;2023-04-03T00:25:27;23.00;40.30
23618;DHT22;18207;32.078;34.818;2023-04-03T00:28:00;23.00;40.40
23618;DHT22;18207;32.078;34.818;2023-04-03T00:30:31;23.00;40.40
23618;DHT22;18207;32.078;34.818;2023-04-03T00:33:03;23.00;40.40
23618;DHT22;18207;32.078;34.818;2023-04-03T00:35:35;23.00;40.40
23618;DHT22;18207;32.078;34.818;2023-04-03T00:38:05;22.90;40.40
23618;DHT22;18207;32.078;34.818;2023-04-03T00:40:39;22.90;40.40
23618;DHT22;18207;32.078;34.818;2023-04-03T00:43:15;22.90;40.40
23618;DHT22;18207;32.078;34.818;2023-04-03T00:45:48;22.90;40.50
23618;DHT22;18207;32.078;34.818;2023-04-03T00:48:23;22.90;40.40
23618;DHT22;18207;32.078;34.818;2023-04-03T00:50:57;22.90;40.50
23618;DHT22;18207;32.078;34.818;2023-04-03T00:53:33;22.80;40.40
23618;DHT22;18207;32.078;34.818;2023-04-03T00:56:10;22.90;40.60
23618;DHT22;18207;32.078;34.818;2023-04-03T00:58:46;22.80;40.50
23618;DHT22;18207;32.078;34.818;2023-04-03T01:01:22;22.80;40.50
23618;DHT22;18207;32.078;34.818;2023-04-03T01:03:55;22.80;40.60
23618;DHT22;18207;32.078;34.818;2023-04-03T01:06:28;22.80;40.60
23618;DHT22;18207;32.078;34.818;2023-04-03T01:09:02;22.80;40.60
23618;DHT22;18207;32.078;34.818;2023-04-03T01:11:33;22.80;40.60
23618;DHT22;18207;32.078;34.818;2023-04-03T01:14:06;22.70;40.50
23618;DHT22;18207;32.078;34.818;2023-04-03T01:16:36;22.70;40.50
23618;DHT22;18207;32.078;34.818;2023-04-03T01:19:11;22.70;40.50
23618;DHT22;18207;32.078;34.818;2023-04-03T01:22:03;22.70;40.50
23618;DHT22;18207;32.078;34.818;2023-04-03T01:24:46;22.70;40.70
23618;DHT22;18207;32.078;34.818;2023-04-03T01:27:17;22.70;40.60
23618;DHT22;18207;32.078;34.818;2023-04-03T01:29:50;22.70;40.60
23618;DHT22;18207;32.078;34.818;2023-04-03T01:32:22;22.60;40.60
23618;DHT22;18207;32.078;34.818;2023-04-03T01:34:53;22.60;40.60
23618;DHT22;18207;32.078;34.818;2023-04-03T01:37:23;22.60;40.60
23618;DHT22;18207;32.078;34.818;2023-04-03T01:39:53;22.60;40.70
23618;DHT22;18207;32.078;34.818;2023-04-03T01:42:23;22.60;40.70
23618;DHT22;18207;32.078;34.818;2023-04-03T01:44:54;22.60;40.70
23618;DHT22;18207;32.078;34.818;2023-04-03T01:47:26;22.60;40.70
23618;DHT22;18207;32.078;34.818;2023-04-03T01:49:56;22.50;40.60
23618;DHT22;18207;32.078;34.818;2023-04-03T01:52:27;22.50;40.60
23618;DHT22;18207;32.078;34.818;2023-04-03T01:54:57;22.50;40.60
23618;DHT22;18207;32.078;34.818;2023-04-03T01:57:28;22.50;40.60
23618;DHT22;18207;32.078;34.818;2023-04-03T01:59:59;22.50;40.60
23618;DHT22;18207;32.078;34.818;2023-04-03T02:02:31;22.50;40.60
23618;DHT22;18207;32.078;34.818;2023-04-03T02:05:01;22.50;40.60
23618;DHT22;18207;32.078;34.818;2023-04-03T02:07:32;22.50;40.70
23618;DHT22;18207;32.078;34.818;2023-04-03T02:10:03;22.50;40.70
23618;DHT22;18207;32.078;34.818;2023-04-03T02:12:34;22.40;40.60
23618;DHT22;18207;32.078;34.818;2023-04-03T02:15:05;22.40;40.60
23618;DHT22;18207;32.078;34.818;2023-04-03T02:17:38;22.40;40.70
23618;DHT22;18207;32.078;34.818;2023-04-03T02:20:09;22.40;40.60
23618;DHT22;18207;32.078;34.818;2023-04-03T02:22:39;22.40;40.70
23618;DHT22;18207;32.078;34.818;2023-04-03T02:25:10;22.40;40.60
23618;DHT22;18207;32.078;34.818;2023-04-03T02:27:41;22.30;40.60
23618;DHT22;18207;32.078;34.818;2023-04-03T02:30:12;22.30;40.60
23618;DHT22;18207;32.078;34.818;2023-04-03T02:32:45;22.30;40.60
23618;DHT22;18207;32.078;34.818;2023-04-03T02:35:16;22.30;40.60
23618;DHT22;18207;32.078;34.818;2023-04-03T02:37:46;22.30;40.60
23618;DHT22;18207;32.078;34.818;2023-04-03T02:40:17;22.30;40.60
23618;DHT22;18207;32.078;34.818;2023-04-03T02:42:48;22.30;40.60
23618;DHT22;18207;32.078;34.818;2023-04-03T02:45:18;22.30;40.60
23618;DHT22;18207;32.078;34.818;2023-04-03T02:47:50;22.30;40.60
23618;DHT22;18207;32.078;34.818;2023-04-03T02:50:21;22.20;40.60
23618;DHT22;18207;32.078;34.818;2023-04-03T02:52:52;22.30;40.60
23618;DHT22;18207;32.078;34.818;2023-04-03T02:55:22;22.20;40.60
23618;DHT22;18207;32.078;34.818;2023-04-03T02:57:53;22.30;40.70
23618;DHT22;18207;32.078;34.818;2023-04-03T03:00:23;22.20;40.60
23618;DHT22;18207;32.078;34.818;2023-04-03T03:02:56;22.20;40.70
23618;DHT22;18207;32.078;34.818;2023-04-03T03:05:26;22.20;40.70
23618;DHT22;18207;32.078;34.818;2023-04-03T03:07:58;22.20;40.70
23618;DHT22;18207;32.078;34.818;2023-04-03T03:10:28;22.20;40.70
23618;DHT22;18207;32.078;34.818;2023-04-03T03:12:58;22.20;40.70
23618;DHT22;18207;32.078;34.818;2023-04-03T03:15:28;22.20;40.80
23618;DHT22;18207;32.078;34.818;2023-04-03T03:18:01;22.10;40.70
23618;DHT22;18207;32.078;34.818;2023-04-03T03:20:32;22.20;40.80
23618;DHT22;18207;32.078;34.818;2023-04-03T03:23:03;22.10;40.70
23618;DHT22;18207;32.078;34.818;2023-04-03T03:25:33;22.10;40.70
23618;DHT22;18207;32.078;34.818;2023-04-03T03:28:07;22.10;40.80
23618;DHT22;18207;32.078;34.818;2023-04-03T03:30:39;22.10;40.80
23618;DHT22;18207;32.078;34.818;2023-04-03T03:33:11;22.10;40.80
23618;DHT22;18207;32.078;34.818;2023-04-03T03:35:41;22.10;40.80
23618;DHT22;18207;32.078;34.818;2023-04-03T03:38:12;22.10;40.80
23618;DHT22;18207;32.078;34.818;2023-04-03T03:40:42;22.10;40.80
23618;DHT22;18207;32.078;34.818;2023-04-03T03:43:13;22.10;40.90
23618;DHT22;18207;32.078;34.818;2023-04-03T03:45:43;22.10;40.90
23618;DHT22;18207;32.078;34.818;2023-04-03T03:48:16;22.10;41.00
23618;DHT22;18207;32.078;34.818;2023-04-03T03:50:46;22.10;41.00
23618;DHT22;18207;32.078;34.818;2023-04-03T03:53:18;22.10;41.00
23618;DHT22;18207;32.078;34.818;2023-04-03T03:55:48;22.00;40.90
23618;DHT22;18207;32.078;34.818;2023-04-03T03:58:19;22.10;41.00
23618;DHT22;18207;32.078;34.818;2023-04-03T04:00:49;22.10;41.00
23618;DHT22;18207;32.078;34.818;2023-04-03T04:03:21;22.00;40.90
23618;DHT22;18207;32.078;34.818;2023-04-03T04:05:52;22.10;41.00
23618;DHT22;18207;32.078;34.818;2023-04-03T04:08:23;22.00;41.00
23618;DHT22;18207;32.078;34.818;2023-04-03T04:10:54;22.00;41.00
23618;DHT22;18207;32.078;34.818;2023-04-03T04:13:24;22.10;41.20
23618;DHT22;18207;32.078;34.818;2023-04-03T04:15:54;22.10;41.20
23618;DHT22;18207;32.078;34.818;2023-04-03T04:18:26;22.10;41.20
23618;DHT22;18207;32.078;34.818;2023-04-03T04:20:57;22.10;41.20
23618;DHT22;18207;32.078;34.818;2023-04-03T04:23:27;22.10;41.20
23618;DHT22;18207;32.078;34.818;2023-04-03T04:25:57;22.10;41.20
23618;DHT22;18207;32.078;34.818;2023-04-03T04:28:27;22.20;41.30
23618;DHT22;18207;32.078;34.818;2023-04-03T04:30:58;22.20;41.30
23618;DHT22;18207;32.078;34.818;2023-04-03T04:33:31;22.20;41.20
23618;DHT22;18207;32.078;34.818;2023-04-03T04:36:02;22.20;41.20
23618;DHT22;18207;32.078;34.818;2023-04-03T04:38:32;22.20;41.20
23618;DHT22;18207;32.078;34.818;2023-04-03T04:41:03;22.30;41.20
23618;DHT22;18207;32.078;34.818;2023-04-03T04:43:33;22.30;41.00
23618;DHT22;18207;32.078;34.818;2023-04-03T04:46:05;22.30;40.90
23618;DHT22;18207;32.078;34.818;2023-04-03T04:48:39;22.30;40.90
23618;DHT22;18207;32.078;34.818;2023-04-03T04:51:09;22.30;40.90
23618;DHT22;18207;32.078;34.818;2023-04-03T04:53:40;22.40;40.90
23618;DHT22;18207;32.078;34.818;2023-04-03T04:56:11;22.40;41.00
23618;DHT22;18207;32.078;34.818;2023-04-03T04:58:42;22.50;41.00
23618;DHT22;18207;32.078;34.818;2023-04-03T05:01:12;22.50;41.00
23618;DHT22;18207;32.078;34.818;2023-04-03T05:03:45;22.60;40.90
23618;DHT22;18207;32.078;34.818;2023-04-03T05:06:15;22.70;40.80
23618;DHT22;18207;32.078;34.818;2023-04-03T05:08:46;22.70;40.70
23618;DHT22;18207;32.078;34.818;2023-04-03T05:11:16;22.70;40.60
23618;DHT22;18207;32.078;34.818;2023-04-03T05:13:51;22.80;40.50
23618;DHT22;18207;32.078;34.818;2023-04-03T05:16:21;22.90;40.50
23618;DHT22;18207;32.078;34.818;2023-04-03T05:18:55;22.90;40.40
23618;DHT22;18207;32.078;34.818;2023-04-03T05:21:25;23.00;40.40
23618;DHT22;18207;32.078;34.818;2023-04-03T05:24:00;23.00;40.30
23618;DHT22;18207;32.078;34.818;2023-04-03T05:26:32;23.10;40.40
23618;DHT22;18207;32.078;34.818;2023-04-03T05:29:03;23.20;40.50
23618;DHT22;18207;32.078;34.818;2023-04-03T05:31:33;23.30;40.40
23618;DHT22;18207;32.078;34.818;2023-04-03T05:34:06;23.30;40.30
23618;DHT22;18207;32.078;34.818;2023-04-03T05:36:36;23.40;40.30
23618;DHT22;18207;32.078;34.818;2023-04-03T05:39:07;23.50;40.20
23618;DHT22;18207;32.078;34.818;2023-04-03T05:41:37;23.60;40.10
23618;DHT22;18207;32.078;34.818;2023-04-03T05:44:07;23.70;40.00
23618;DHT22;18207;32.078;34.818;2023-04-03T05:46:38;23.70;39.90
23618;DHT22;18207;32.078;34.818;2023-04-03T05:49:10;23.90;40.00
23618;DHT22;18207;32.078;34.818;2023-04-03T05:51:40;24.00;40.00
23618;DHT22;18207;32.078;34.818;2023-04-03T05:54:14;24.10;40.00
23618;DHT22;18207;32.078;34.818;2023-04-03T05:56:48;24.20;39.80
23618;DHT22;18207;32.078;34.818;2023-04-03T05:59:20;24.30;39.80
23618;DHT22;18207;32.078;34.818;2023-04-03T06:01:51;24.40;39.70
23618;DHT22;18207;32.078;34.818;2023-04-03T06:04:23;24.50;39.60
23618;DHT22;18207;32.078;34.818;2023-04-03T06:06:55;24.60;39.50
23618;DHT22;18207;32.078;34.818;2023-04-03T06:09:28;24.70;39.50
23618;DHT22;18207;32.078;34.818;2023-04-03T06:11:59;24.80;39.30
23618;DHT22;18207;32.078;34.818;2023-04-03T06:14:29;24.80;39.20
23618;DHT22;18207;32.078;34.818;2023-04-03T06:17:00;25.00;39.10
23618;DHT22;18207;32.078;34.818;2023-04-03T06:19:32;25.10;39.00
23618;DHT22;18207;32.078;34.818;2023-04-03T06:22:03;25.10;38.70
23618;DHT22;18207;32.078;34.818;2023-04-03T06:24:33;25.30;38.70
23618;DHT22;18207;32.078;34.818;2023-04-03T06:27:04;25.40;38.50
23618;DHT22;18207;32.078;34.818;2023-04-03T06:29:35;25.40;38.30
23618;DHT22;18207;32.078;34.818;2023-04-03T06:32:05;25.50;38.40
23618;DHT22;18207;32.078;34.818;2023-04-03T06:34:38;25.60;38.30
23618;DHT22;18207;32.078;34.818;2023-04-03T06:37:11;25.70;38.20
23618;DHT22;18207;32.078;34.818;2023-04-03T06:39:45;25.80;38.10
23618;DHT22;18207;32.078;34.818;2023-04-03T06:42:16;25.90;38.00
23618;DHT22;18207;32.078;34.818;2023-04-03T06:44:47;26.00;37.90
23618;DHT22;18207;32.078;34.818;2023-04-03T06:47:18;26.10;37.80
23618;DHT22;18207;32.078;34.818;2023-04-03T06:49:50;26.20;37.60
23618;DHT22;18207;32.078;34.818;2023-04-03T06:52:21;26.20;37.40
23618;DHT22;18207;32.078;34.818;2023-04-03T06:54:51;26.40;37.50
23618;DHT22;18207;32.078;34.818;2023-04-03T06:57:24;26.40;37.30
23618;DHT22;18207;32.078;34.818;2023-04-03T06:59:55;26.50;37.80
23618;DHT22;18207;32.078;34.818;2023-04-03T07:02:25;26.60;37.10
23618;DHT22;18207;32.078;34.818;2023-04-03T07:04:58;26.70;37.00
23618;DHT22;18207;32.078;34.818;2023-04-03T07:07:29;26.70;36.70
23618;DHT22;18207;32.078;34.818;2023-04-03T07:10:02;26.80;36.60
23618;DHT22;18207;32.078;34.818;2023-04-03T07:12:32;26.90;36.60
23618;DHT22;18207;32.078;34.818;2023-04-03T07:15:04;27.00;36.60
23618;DHT22;18207;32.078;34.818;2023-04-03T07:17:35;27.10;36.40
23618;DHT22;18207;32.078;34.818;2023-04-03T07:20:09;27.10;36.10
23618;DHT22;18207;32.078;34.818;2023-04-03T07:22:40;27.20;36.00
23618;DHT22;18207;32.078;34.818;2023-04-03T07:25:11;27.30;36.00
23618;DHT22;18207;32.078;34.818;2023-04-03T07:27:41;27.40;36.00
23618;DHT22;18207;32.078;34.818;2023-04-03T07:30:12;27.40;35.80
23618;DHT22;18207;32.078;34.818;2023-04-03T07:32:43;27.50;35.60
23618;DHT22;18207;32.078;34.818;2023-04-03T07:35:15;27.60;35.40
23618;DHT22;18207;32.078;34.818;2023-04-03T07:37:46;27.70;35.30
23618;DHT22;18207;32.078;34.818;2023-04-03T07:40:16;27.80;35.30
23618;DHT22;18207;32.078;34.818;2023-04-03T07:42:47;27.80;35.30
23618;DHT22;18207;32.078;34.818;2023-04-03T07:45:17;27.90;35.20
23618;DHT22;18207;32.078;34.818;2023-04-03T07:47:48;27.90;35.20
23618;DHT22;18207;32.078;34.818;2023-04-03T07:50:20;28.00;35.10
23618;DHT22;18207;32.078;34.818;2023-04-03T07:52:50;28.10;35.10
23618;DHT22;18207;32.078;34.818;2023-04-03T07:55:22;28.10;35.10
23618;DHT22;18207;32.078;34.818;2023-04-03T07:57:53;28.20;35.10
23618;DHT22;18207;32.078;34.818;2023-04-03T08:00:24;28.30;35.00
23618;DHT22;18207;32.078;34.818;2023-04-03T08:02:54;28.40;35.00
23618;DHT22;18207;32.078;34.818;2023-04-03T08:05:27;28.40;35.60
23618;DHT22;18207;32.078;34.818;2023-04-03T08:07:57;28.50;35.00
23618;DHT22;18207;32.078;34.818;2023-04-03T08:10:30;28.50;35.00
23618;DHT22;18207;32.078;34.818;2023-04-03T08:13:01;28.50;34.90
23618;DHT22;18207;32.078;34.818;2023-04-03T08:15:32;28.60;35.00
23618;DHT22;18207;32.078;34.818;2023-04-03T08:18:03;28.70;35.00
23618;DHT22;18207;32.078;34.818;2023-04-03T08:20:37;28.70;34.90
23618;DHT22;18207;32.078;34.818;2023-04-03T08:23:08;28.80;34.90
23618;DHT22;18207;32.078;34.818;2023-04-03T08:25:40;28.80;34.90
23618;DHT22;18207;32.078;34.818;2023-04-03T08:28:12;28.90;35.00
23618;DHT22;18207;32.078;34.818;2023-04-03T08:30:43;28.90;35.00
23618;DHT22;18207;32.078;34.818;2023-04-03T08:33:13;28.90;35.00
23618;DHT22;18207;32.078;34.818;2023-04-03T08:35:46;29.00;35.00
23618;DHT22;18207;32.078;34.818;2023-04-03T08:38:17;29.10;35.00
23618;DHT22;18207;32.078;34.818;2023-04-03T08:40:48;29.10;35.00
23618;DHT22;18207;32.078;34.818;2023-04-03T08:43:37;29.10;34.90
23618;DHT22;18207;32.078;34.818;2023-04-03T08:46:17;29.20;34.90
23618;DHT22;18207;32.078;34.818;2023-04-03T08:48:54;29.20;34.80
23618;DHT22;18207;32.078;34.818;2023-04-03T08:51:44;29.20;34.80
23618;DHT22;18207;32.078;34.818;2023-04-03T08:54:27;29.30;34.60
23618;DHT22;18207;32.078;34.818;2023-04-03T08:57:03;29.30;34.60
23618;DHT22;18207;32.078;34.818;2023-04-03T08:59:37;29.30;34.60
23618;DHT22;18207;32.078;34.818;2023-04-03T09:02:23;29.40;34.60
23618;DHT22;18207;32.078;34.818;2023-04-03T09:04:58;29.40;34.40
23618;DHT22;18207;32.078;34.818;2023-04-03T09:07:37;29.50;34.50
23618;DHT22;18207;32.078;34.818;2023-04-03T09:10:14;29.50;34.40
23618;DHT22;18207;32.078;34.818;2023-04-03T09:12:53;29.50;34.40
23618;DHT22;18207;32.078;34.818;2023-04-03T09:15:30;29.50;34.30
23618;DHT22;18207;32.078;34.818;2023-04-03T09:18:11;29.60;34.40
23618;DHT22;18207;32.078;34.818;2023-04-03T09:20:53;29.50;34.30
23618;DHT22;18207;32.078;34.818;2023-04-03T09:23:39;29.60;34.40
23618;DHT22;18207;32.078;34.818;2023-04-03T09:26:17;29.60;34.40
23618;DHT22;18207;32.078;34.818;2023-04-03T09:28:53;29.60;34.50
23618;DHT22;18207;32.078;34.818;2023-04-03T09:31:26;29.60;34.60
23618;DHT22;18207;32.078;34.818;2023-04-03T09:34:02;29.60;34.60
23618;DHT22;18207;32.078;34.818;2023-04-03T09:36:41;29.60;34.50
23618;DHT22;18207;32.078;34.818;2023-04-03T09:39:16;29.60;34.60
23618;DHT22;18207;32.078;34.818;2023-04-03T09:41:58;29.60;34.60
23618;DHT22;18207;32.078;34.818;2023-04-03T09:44:35;29.60;34.50
23618;DHT22;18207;32.078;34.818;2023-04-03T09:47:19;29.60;34.60
23618;DHT22;18207;32.078;34.818;2023-04-03T09:50:17;29.70;34.60
23618;DHT22;18207;32.078;34.818;2023-04-03T09:52:51;29.70;34.70
23618;DHT22;18207;32.078;34.818;2023-04-03T09:55:24;29.70;34.70
23618;DHT22;18207;32.078;34.818;2023-04-03T09:57:59;29.70;34.60
23618;DHT22;18207;32.078;34.818;2023-04-03T10:00:34;29.70;34.50
23618;DHT22;18207;32.078;34.818;2023-04-03T10:03:24;29.70;34.30
23618;DHT22;18207;32.078;34.818;2023-04-03T10:06:01;29.70;34.20
23618;DHT22;18207;32.078;34.818;2023-04-03T10:08:33;29.70;34.30
23618;DHT22;18207;32.078;34.818;2023-04-03T10:11:12;29.70;34.30
23618;DHT22;18207;32.078;34.818;2023-04-03T10:13:52;29.70;34.20
23618;DHT22;18207;32.078;34.818;2023-04-03T10:16:31;29.70;34.10
23618;DHT22;18207;32.078;34.818;2023-04-03T10:19:29;29.80;34.10
23618;DHT22;18207;32.078;34.818;2023-04-03T10:22:20;29.80;34.10
23618;DHT22;18207;32.078;34.818;2023-04-03T10:25:02;29.80;34.00
23618;DHT22;18207;32.078;34.818;2023-04-03T10:27:55;29.80;34.00
23618;DHT22;18207;32.078;34.818;2023-04-03T10:30:34;29.80;33.90
23618;DHT22;18207;32.078;34.818;2023-04-03T10:33:31;29.80;33.90
23618;DHT22;18207;32.078;34.818;2023-04-03T10:36:16;29.80;33.80
23618;DHT22;18207;32.078;34.818;2023-04-03T10:38:59;29.80;33.80
23618;DHT22;18207;32.078;34.818;2023-04-03T10:41:47;29.80;33.70
23618;DHT22;18207;32.078;34.818;2023-04-03T10:44:57;29.80;33.70
23618;DHT22;18207;32.078;34.818;2023-04-03T10:47:42;29.90;34.10
23618;DHT22;18207;32.078;34.818;2023-04-03T10:50:31;29.90;33.50
23618;DHT22;18207;32.078;34.818;2023-04-03T10:53:17;29.80;33.40
23618;DHT22;18207;32.078;34.818;2023-04-03T10:56:00;29.90;33.30
23618;DHT22;18207;32.078;34.818;2023-04-03T10:58:39;29.90;33.30
23618;DHT22;18207;32.078;34.818;2023-04-03T11:01:19;29.80;33.20
23618;DHT22;18207;32.078;34.818;2023-04-03T11:03:54;29.90;33.30
23618;DHT22;18207;32.078;34.818;2023-04-03T11:06:36;29.80;33.30
23618;DHT22;18207;32.078;34.818;2023-04-03T11:09:18;29.80;33.80
23618;DHT22;18207;32.078;34.818;2023-04-03T11:11:56;29.80;33.10
23618;DHT22;18207;32.078;34.818;2023-04-03T11:14:34;29.80;33.10
23618;DHT22;18207;32.078;34.818;2023-04-03T11:17:15;29.80;33.10
23618;DHT22;18207;32.078;34.818;2023-04-03T11:19:59;29.80;33.00
23618;DHT22;18207;32.078;34.818;2023-04-03T11:22:39;29.80;33.00
23618;DHT22;18207;32.078;34.818;2023-04-03T11:25:17;29.80;33.00
23618;DHT22;18207;32.078;34.818;2023-04-03T11:27:55;29.80;32.90
23618;DHT22;18207;32.078;34.818;2023-04-03T11:30:30;29.80;32.80
23618;DHT22;18207;32.078;34.818;2023-04-03T11:36:09;29.80;32.60
23618;DHT22;18207;32.078;34.818;2023-04-03T11:39:02;29.80;32.60
23618;DHT22;18207;32.078;34.818;2023-04-03T11:41:40;29.80;32.60
23618;DHT22;18207;32.078;34.818;2023-04-03T11:44:33;29.80;32.60
23618;DHT22;18207;32.078;34.818;2023-04-03T11:47:05;29.80;32.40
23618;DHT22;18207;32.078;34.818;2023-04-03T11:49:59;29.80;32.60
23618;DHT22;18207;32.078;34.818;2023-04-03T11:52:58;29.80;32.40
23618;DHT22;18207;32.078;34.818;2023-04-03T11:59:21;29.80;32.60
23618;DHT22;18207;32.078;34.818;2023-04-03T12:01:54;29.80;32.60
23618;DHT22;18207;32.078;34.818;2023-04-03T12:04:26;29.80;32.70
23618;DHT22;18207;32.078;34.818;2023-04-03T12:07:18;29.80;32.80
23618;DHT22;18207;32.078;34.818;2023-04-03T12:09:58;29.70;32.70
23618;DHT22;18207;32.078;34.818;2023-04-03T12:12:34;29.70;32.80
23618;DHT22;18207;32.078;34.818;2023-04-03T12:15:23;29.70;32.70
23618;DHT22;18207;32.078;34.818;2023-04-03T12:18:36;29.70;32.60
23618;DHT22;18207;32.078;34.818;2023-04-03T12:21:12;29.70;32.60
23618;DHT22;18207;32.078;34.818;2023-04-03T12:24:03;29.70;32.70
23618;DHT22;18207;32.078;34.818;2023-04-03T12:26:38;29.60;32.60
23618;DHT22;18207;32.078;34.818;2023-04-03T12:29:21;29.70;32.80
23618;DHT22;18207;32.078;34.818;2023-04-03T12:32:10;29.60;32.80
23618;DHT22;18207;32.078;34.818;2023-04-03T12:35:05;29.60;32.90
23618;DHT22;18207;32.078;34.818;2023-04-03T12:38:12;29.60;32.90
23618;DHT22;18207;32.078;34.818;2023-04-03T12:41:18;29.60;32.80
23618;DHT22;18207;32.078;34.818;2023-04-03T12:44:09;29.60;32.80
23618;DHT22;18207;32.078;34.818;2023-04-03T12:46:51;29.50;32.80
23618;DHT22;18207;32.078;34.818;2023-04-03T12:49:35;29.50;32.80
23618;DHT22;18207;32.078;34.818;2023-04-03T12:52:19;29.50;32.70
23618;DHT22;18207;32.078;34.818;2023-04-03T12:55:03;29.40;32.70
23618;DHT22;18207;32.078;34.818;2023-04-03T12:57:49;29.40;32.80
23618;DHT22;18207;32.078;34.818;2023-04-03T13:03:23;29.30;32.70
23618;DHT22;18207;32.078;34.818;2023-04-03T13:05:59;29.30;32.70
23618;DHT22;18207;32.078;34.818;2023-04-03T13:08:31;29.30;32.80
23618;DHT22;18207;32.078;34.818;2023-04-03T13:11:05;29.20;32.80
23618;DHT22;18207;32.078;34.818;2023-04-03T13:13:54;29.20;32.90
23618;DHT22;18207;32.078;34.818;2023-04-03T13:16:26;29.20;32.80
23618;DHT22;18207;32.078;34.818;2023-04-03T13:18:57;29.20;32.90
23618;DHT22;18207;32.078;34.818;2023-04-03T13:21:29;29.10;32.80
23618;DHT22;18207;32.078;34.818;2023-04-03T13:24:03;29.10;32.80
23618;DHT22;18207;32.078;34.818;2023-04-03T13:26:42;29.10;32.80
23618;DHT22;18207;32.078;34.818;2023-04-03T13:29:23;29.00;32.80
23618;DHT22;18207;32.078;34.818;2023-04-03T13:31:59;29.00;32.80
23618;DHT22;18207;32.078;34.818;2023-04-03T13:34:44;28.90;32.80
23618;DHT22;18207;32.078;34.818;2023-04-03T13:37:25;28.90;32.80
23618;DHT22;18207;32.078;34.818;2023-04-03T13:39:59;28.90;32.80
23618;DHT22;18207;32.078;34.818;2023-04-03T13:42:34;28.90;32.80
23618;DHT22;18207;32.078;34.818;2023-04-03T13:45:28;28.80;32.80
23618;DHT22;18207;32.078;34.818;2023-04-03T13:48:15;28.80;32.80
23618;DHT22;18207;32.078;34.818;2023-04-03T13:50:53;28.80;32.80
23618;DHT22;18207;32.078;34.818;2023-04-03T13:53:30;28.70;32.90
23618;DHT22;18207;32.078;34.818;2023-04-03T13:56:08;28.70;32.90
23618;DHT22;18207;32.078;34.818;2023-04-03T13:58:58;28.70;33.00
23618;DHT22;18207;32.078;34.818;2023-04-03T14:01:43;28.70;33.00
23618;DHT22;18207;32.078;34.818;2023-04-03T14:04:18;28.60;33.00
23618;DHT22;18207;32.078;34.818;2023-04-03T14:06:51;28.70;33.10
23618;DHT22;18207;32.078;34.818;2023-04-03T14:09:23;28.60;33.00
23618;DHT22;18207;32.078;34.818;2023-04-03T14:11:57;28.60;33.00
23618;DHT22;18207;32.078;34.818;2023-04-03T14:14:35;28.60;33.10
23618;DHT22;18207;32.078;34.818;2023-04-03T14:17:14;28.60;33.10
23618;DHT22;18207;32.078;34.818;2023-04-03T14:19:53;28.60;33.10
23618;DHT22;18207;32.078;34.818;2023-04-03T14:22:33;28.50;33.10
23618;DHT22;18207;32.078;34.818;2023-04-03T14:25:05;28.50;33.10
23618;DHT22;18207;32.078;34.818;2023-04-03T14:27:38;28.50;33.10
23618;DHT22;18207;32.078;34.818;2023-04-03T14:30:22;28.50;33.10
23618;DHT22;18207;32.078;34.818;2023-04-03T14:32:56;28.40;32.90
23618;DHT22;18207;32.078;34.818;2023-04-03T14:35:28;28.40;33.00
23618;DHT22;18207;32.078;34.818;2023-04-03T14:37:59;28.40;33.00
23618;DHT22;18207;32.078;34.818;2023-04-03T14:40:29;28.30;33.00
23618;DHT22;18207;32.078;34.818;2023-04-03T14:43:00;28.30;33.00
23618;DHT22;18207;32.078;34.818;2023-04-03T14:45:30;28.30;33.00
23618;DHT22;18207;32.078;34.818;2023-04-03T14:48:03;28.30;33.00
23618;DHT22;18207;32.078;34.818;2023-04-03T14:50:34;28.30;33.00
23618;DHT22;18207;32.078;34.818;2023-04-03T14:53:05;28.30;33.00
23618;DHT22;18207;32.078;34.818;2023-04-03T14:55:35;28.20;32.90
23618;DHT22;18207;32.078;34.818;2023-04-03T14:58:07;28.20;32.90
23618;DHT22;18207;32.078;34.818;2023-04-03T15:00:42;28.20;32.80
23618;DHT22;18207;32.078;34.818;2023-04-03T15:03:16;28.20;32.70
23618;DHT22;18207;32.078;34.818;2023-04-03T15:05:49;28.20;32.70
23618;DHT22;18207;32.078;34.818;2023-04-03T15:08:23;28.20;32.70
23618;DHT22;18207;32.078;34.818;2023-04-03T15:10:57;28.20;32.60
23618;DHT22;18207;32.078;34.818;2023-04-03T15:13:28;28.10;32.50
23618;DHT22;18207;32.078;34.818;2023-04-03T15:15:59;28.10;32.60
23618;DHT22;18207;32.078;34.818;2023-04-03T15:18:37;28.10;32.50
23618;DHT22;18207;32.078;34.818;2023-04-03T15:21:07;28.10;32.50
23618;DHT22;18207;32.078;34.818;2023-04-03T15:23:38;28.10;32.50
23618;DHT22;18207;32.078;34.818;2023-04-03T15:26:09;28.10;32.60
23618;DHT22;18207;32.078;34.818;2023-04-03T15:28:41;28.00;32.50
23618;DHT22;18207;32.078;34.818;2023-04-03T15:31:13;28.00;32.50
23618;DHT22;18207;32.078;34.818;2023-04-03T15:33:46;28.10;32.60
23618;DHT22;18207;32.078;34.818;2023-04-03T15:36:16;28.00;32.60
23618;DHT22;18207;32.078;34.818;2023-04-03T15:39:00;28.00;32.60
23618;DHT22;18207;32.078;34.818;2023-04-03T15:41:31;28.00;32.60
23618;DHT22;18207;32.078;34.818;2023-04-03T15:44:01;28.00;32.70
23618;DHT22;18207;32.078;34.818;2023-04-03T15:46:33;27.90;32.70
23618;DHT22;18207;32.078;34.818;2023-04-03T15:49:05;27.90;32.70
23618;DHT22;18207;32.078;34.818;2023-04-03T15:51:35;27.90;32.80
23618;DHT22;18207;32.078;34.818;2023-04-03T15:54:06;27.90;32.90
23618;DHT22;18207;32.078;34.818;2023-04-03T15:56:36;27.90;32.90
23618;DHT22;18207;32.078;34.818;2023-04-03T15:59:07;27.90;33.00
23618;DHT22;18207;32.078;34.818;2023-04-03T16:01:37;27.90;33.00
23618;DHT22;18207;32.078;34.818;2023-04-03T16:04:11;27.90;33.10
23618;DHT22;18207;32.078;34.818;2023-04-03T16:06:42;27.80;33.10
23618;DHT22;18207;32.078;34.818;2023-04-03T16:09:13;27.80;33.20
23618;DHT22;18207;32.078;34.818;2023-04-03T16:11:43;27.80;33.20